sensor_id;sensor_type;location;lat;lon;timestamp;P1;durP1;ratioP1;P2;durP2;ratioP2
305;SDS011;137;48.578;9.180;2024-02-28T00:01:08;19.90;;;14.47;;
305;SDS011;137;48.578;9.180;2024-02-28T00:03:35;18.90;;;14.10;;
305;SDS011;137;48.578;9.180;2024-02-28T00:06:02;20.90;;;16.30;;
305;SDS011;137;48.578;9.180;2024-02-28T00:08:29;21.30;;;16.77;;
305;SDS011;137;48.578;9.180;2024-02-28T00:10:55;18.17;;;13.43;;
305;SDS011;137;48.578;9.180;2024-02-28T00:13:23;19.80;;;15.27;;
305;SDS011;137;48.578;9.180;2024-02-28T00:15:50;19.30;;;14.60;;
305;SDS011;137;48.578;9.180;2024-02-28T00:18:17;17.60;;;13.30;;
305;SDS011;137;48.578;9.180;2024-02-28T00:20:44;21.33;;;15.30;;
305;SDS011;137;48.578;9.180;2024-02-28T00:23:11;17.70;;;13.63;;
305;SDS011;137;48.578;9.180;2024-02-28T00:25:37;20.47;;;14.17;;
305;SDS011;137;48.578;9.180;2024-02-28T00:28:04;19.60;;;15.37;;
305;SDS011;137;48.578;9.180;2024-02-28T00:30:32;17.27;;;14.53;;
305;SDS011;137;48.578;9.180;2024-02-28T00:32:59;19.83;;;14.47;;
305;SDS011;137;48.578;9.180;2024-02-28T00:35:26;19.17;;;13.50;;
305;SDS011;137;48.578;9.180;2024-02-28T00:37:54;18.00;;;14.40;;
305;SDS011;137;48.578;9.180;2024-02-28T00:40:20;17.30;;;13.77;;
305;SDS011;137;48.578;9.180;2024-02-28T00:42:47;19.33;;;15.00;;
305;SDS011;137;48.578;9.180;2024-02-28T00:45:14;18.00;;;14.40;;
305;SDS011;137;48.578;9.180;2024-02-28T00:47:43;15.83;;;13.07;;
305;SDS011;137;48.578;9.180;2024-02-28T00:50:09;20.10;;;14.20;;
305;SDS011;137;48.578;9.180;2024-02-28T00:52:36;18.33;;;14.27;;
305;SDS011;137;48.578;9.180;2024-02-28T00:55:03;20.97;;;14.30;;
305;SDS011;137;48.578;9.180;2024-02-28T00:57:31;20.07;;;15.27;;
305;SDS011;137;48.578;9.180;2024-02-28T00:59:57;18.57;;;15.37;;
305;SDS011;137;48.578;9.180;2024-02-28T01:02:25;18.17;;;12.73;;
305;SDS011;137;48.578;9.180;2024-02-28T01:04:53;17.40;;;13.07;;
305;SDS011;137;48.578;9.180;2024-02-28T01:07:19;18.23;;;15.53;;
305;SDS011;137;48.578;9.180;2024-02-28T01:09:46;17.87;;;14.77;;
305;SDS011;137;48.578;9.180;2024-02-28T01:12:13;22.47;;;14.73;;
305;SDS011;137;48.578;9.180;2024-02-28T01:14:39;19.33;;;14.10;;
305;SDS011;137;48.578;9.180;2024-02-28T01:17:06;17.10;;;14.70;;
305;SDS011;137;48.578;9.180;2024-02-28T01:19:33;14.80;;;11.83;;
305;SDS011;137;48.578;9.180;2024-02-28T01:22:01;16.90;;;13.00;;
305;SDS011;137;48.578;9.180;2024-02-28T01:24:28;16.57;;;12.37;;
305;SDS011;137;48.578;9.180;2024-02-28T01:26:55;16.20;;;13.50;;
305;SDS011;137;48.578;9.180;2024-02-28T01:29:21;14.53;;;12.93;;
305;SDS011;137;48.578;9.180;2024-02-28T01:31:48;14.97;;;12.43;;
305;SDS011;137;48.578;9.180;2024-02-28T01:34:15;17.97;;;13.33;;
305;SDS011;137;48.578;9.180;2024-02-28T01:36:41;16.70;;;11.97;;
305;SDS011;137;48.578;9.180;2024-02-28T01:39:10;15.20;;;11.70;;
305;SDS011;137;48.578;9.180;2024-02-28T01:41:36;17.70;;;13.80;;
305;SDS011;137;48.578;9.180;2024-02-28T01:44:03;16.87;;;13.40;;
305;SDS011;137;48.578;9.180;2024-02-28T01:46:30;15.87;;;13.40;;
305;SDS011;137;48.578;9.180;2024-02-28T01:48:58;18.27;;;13.27;;
305;SDS011;137;48.578;9.180;2024-02-28T01:51:25;18.30;;;12.47;;
305;SDS011;137;48.578;9.180;2024-02-28T01:53:53;15.80;;;12.40;;
305;SDS011;137;48.578;9.180;2024-02-28T01:56:22;16.17;;;12.97;;
305;SDS011;137;48.578;9.180;2024-02-28T01:58:50;16.23;;;13.83;;
305;SDS011;137;48.578;9.180;2024-02-28T02:01:17;18.00;;;12.93;;
305;SDS011;137;48.578;9.180;2024-02-28T02:03:44;17.10;;;12.57;;
305;SDS011;137;48.578;9.180;2024-02-28T02:06:10;16.00;;;13.20;;
305;SDS011;137;48.578;9.180;2024-02-28T02:08:37;15.33;;;13.10;;
305;SDS011;137;48.578;9.180;2024-02-28T02:11:05;16.30;;;11.70;;
305;SDS011;137;48.578;9.180;2024-02-28T02:13:33;15.23;;;12.50;;
305;SDS011;137;48.578;9.180;2024-02-28T02:16:00;16.93;;;11.80;;
305;SDS011;137;48.578;9.180;2024-02-28T02:18:27;18.67;;;13.60;;
305;SDS011;137;48.578;9.180;2024-02-28T02:20:54;15.83;;;13.07;;
305;SDS011;137;48.578;9.180;2024-02-28T02:23:29;16.70;;;12.90;;
305;SDS011;137;48.578;9.180;2024-02-28T02:25:56;14.00;;;12.10;;
305;SDS011;137;48.578;9.180;2024-02-28T02:28:23;13.03;;;11.70;;
305;SDS011;137;48.578;9.180;2024-02-28T02:30:49;15.50;;;12.40;;
305;SDS011;137;48.578;9.180;2024-02-28T02:33:16;17.23;;;15.13;;
305;SDS011;137;48.578;9.180;2024-02-28T02:35:43;15.00;;;12.10;;
305;SDS011;137;48.578;9.180;2024-02-28T02:38:10;17.70;;;11.97;;
305;SDS011;137;48.578;9.180;2024-02-28T02:40:38;16.27;;;12.60;;
305;SDS011;137;48.578;9.180;2024-02-28T02:43:04;16.73;;;13.47;;
305;SDS011;137;48.578;9.180;2024-02-28T02:45:31;14.57;;;12.37;;
305;SDS011;137;48.578;9.180;2024-02-28T02:47:58;14.47;;;11.67;;
305;SDS011;137;48.578;9.180;2024-02-28T02:50:24;14.30;;;12.33;;
305;SDS011;137;48.578;9.180;2024-02-28T02:52:51;15.57;;;12.90;;
305;SDS011;137;48.578;9.180;2024-02-28T02:55:18;16.47;;;12.80;;
305;SDS011;137;48.578;9.180;2024-02-28T02:57:46;13.17;;;10.57;;
305;SDS011;137;48.578;9.180;2024-02-28T03:00:13;14.20;;;12.10;;
305;SDS011;137;48.578;9.180;2024-02-28T03:02:39;18.03;;;12.53;;
305;SDS011;137;48.578;9.180;2024-02-28T03:05:07;14.27;;;11.90;;
305;SDS011;137;48.578;9.180;2024-02-28T03:07:34;15.90;;;12.57;;
305;SDS011;137;48.578;9.180;2024-02-28T03:10:00;15.10;;;12.40;;
305;SDS011;137;48.578;9.180;2024-02-28T03:12:28;14.07;;;12.57;;
305;SDS011;137;48.578;9.180;2024-02-28T03:14:56;16.20;;;12.73;;
305;SDS011;137;48.578;9.180;2024-02-28T03:17:23;14.37;;;12.87;;
305;SDS011;137;48.578;9.180;2024-02-28T03:19:49;13.60;;;11.90;;
305;SDS011;137;48.578;9.180;2024-02-28T03:22:16;17.37;;;13.00;;
305;SDS011;137;48.578;9.180;2024-02-28T03:24:43;16.07;;;12.40;;
305;SDS011;137;48.578;9.180;2024-02-28T03:27:10;18.30;;;12.90;;
305;SDS011;137;48.578;9.180;2024-02-28T03:29:36;14.43;;;12.90;;
305;SDS011;137;48.578;9.180;2024-02-28T03:32:05;13.93;;;11.77;;
305;SDS011;137;48.578;9.180;2024-02-28T03:34:32;17.10;;;12.67;;
305;SDS011;137;48.578;9.180;2024-02-28T03:36:58;17.77;;;14.30;;
305;SDS011;137;48.578;9.180;2024-02-28T03:39:25;18.40;;;14.13;;
305;SDS011;137;48.578;9.180;2024-02-28T03:41:52;17.47;;;13.50;;
305;SDS011;137;48.578;9.180;2024-02-28T03:44:19;15.90;;;12.10;;
305;SDS011;137;48.578;9.180;2024-02-28T03:46:46;15.20;;;12.67;;
305;SDS011;137;48.578;9.180;2024-02-28T03:49:14;19.03;;;14.70;;
305;SDS011;137;48.578;9.180;2024-02-28T03:51:41;20.47;;;13.17;;
305;SDS011;137;48.578;9.180;2024-02-28T03:54:08;19.67;;;13.00;;
305;SDS011;137;48.578;9.180;2024-02-28T03:56:34;16.20;;;13.70;;
305;SDS011;137;48.578;9.180;2024-02-28T03:59:01;15.53;;;11.87;;
305;SDS011;137;48.578;9.180;2024-02-28T04:01:28;16.80;;;14.07;;
305;SDS011;137;48.578;9.180;2024-02-28T04:03:55;21.03;;;14.90;;
305;SDS011;137;48.578;9.180;2024-02-28T04:06:24;20.23;;;14.20;;
305;SDS011;137;48.578;9.180;2024-02-28T04:08:50;17.47;;;15.30;;
305;SDS011;137;48.578;9.180;2024-02-28T04:11:17;20.70;;;15.27;;
305;SDS011;137;48.578;9.180;2024-02-28T04:13:44;19.87;;;14.80;;
305;SDS011;137;48.578;9.180;2024-02-28T04:16:11;21.50;;;14.73;;
305;SDS011;137;48.578;9.180;2024-02-28T04:18:38;18.13;;;14.30;;
305;SDS011;137;48.578;9.180;2024-02-28T04:21:05;22.07;;;15.50;;
305;SDS011;137;48.578;9.180;2024-02-28T04:23:33;17.37;;;14.67;;
305;SDS011;137;48.578;9.180;2024-02-28T04:26:00;20.97;;;16.00;;
305;SDS011;137;48.578;9.180;2024-02-28T04:28:28;16.57;;;12.70;;
305;SDS011;137;48.578;9.180;2024-02-28T04:30:55;23.97;;;17.40;;
305;SDS011;137;48.578;9.180;2024-02-28T04:33:22;23.43;;;16.50;;
305;SDS011;137;48.578;9.180;2024-02-28T04:35:49;20.20;;;15.00;;
305;SDS011;137;48.578;9.180;2024-02-28T04:38:15;20.00;;;15.13;;
305;SDS011;137;48.578;9.180;2024-02-28T04:40:44;22.30;;;15.27;;
305;SDS011;137;48.578;9.180;2024-02-28T04:43:10;20.70;;;15.00;;
305;SDS011;137;48.578;9.180;2024-02-28T04:45:37;18.80;;;13.80;;
305;SDS011;137;48.578;9.180;2024-02-28T04:48:04;19.67;;;13.37;;
305;SDS011;137;48.578;9.180;2024-02-28T04:50:32;23.90;;;16.03;;
305;SDS011;137;48.578;9.180;2024-02-28T04:52:58;19.90;;;15.43;;
305;SDS011;137;48.578;9.180;2024-02-28T04:55:25;22.17;;;15.30;;
305;SDS011;137;48.578;9.180;2024-02-28T04:57:53;24.40;;;17.60;;
305;SDS011;137;48.578;9.180;2024-02-28T05:00:20;21.20;;;16.97;;
305;SDS011;137;48.578;9.180;2024-02-28T05:02:46;22.83;;;15.20;;
305;SDS011;137;48.578;9.180;2024-02-28T05:05:13;18.23;;;14.77;;
305;SDS011;137;48.578;9.180;2024-02-28T05:07:40;21.27;;;15.07;;
305;SDS011;137;48.578;9.180;2024-02-28T05:10:07;21.20;;;14.40;;
305;SDS011;137;48.578;9.180;2024-02-28T05:12:34;20.43;;;14.20;;
305;SDS011;137;48.578;9.180;2024-02-28T05:15:02;23.73;;;15.87;;
305;SDS011;137;48.578;9.180;2024-02-28T05:17:31;22.87;;;16.07;;
305;SDS011;137;48.578;9.180;2024-02-28T05:19:58;17.90;;;13.70;;
305;SDS011;137;48.578;9.180;2024-02-28T05:22:25;20.50;;;15.20;;
305;SDS011;137;48.578;9.180;2024-02-28T05:24:51;20.03;;;14.87;;
305;SDS011;137;48.578;9.180;2024-02-28T05:27:18;24.00;;;14.73;;
305;SDS011;137;48.578;9.180;2024-02-28T05:29:45;21.70;;;15.10;;
305;SDS011;137;48.578;9.180;2024-02-28T05:32:13;19.63;;;13.53;;
305;SDS011;137;48.578;9.180;2024-02-28T05:34:42;20.47;;;14.67;;
305;SDS011;137;48.578;9.180;2024-02-28T05:37:08;17.13;;;14.00;;
305;SDS011;137;48.578;9.180;2024-02-28T05:39:35;20.97;;;15.67;;
305;SDS011;137;48.578;9.180;2024-02-28T05:42:02;16.23;;;13.60;;
305;SDS011;137;48.578;9.180;2024-02-28T05:44:29;19.23;;;13.63;;
305;SDS011;137;48.578;9.180;2024-02-28T05:46:56;22.57;;;16.27;;
305;SDS011;137;48.578;9.180;2024-02-28T05:49:24;18.67;;;13.50;;
305;SDS011;137;48.578;9.180;2024-02-28T05:51:50;21.90;;;15.00;;
305;SDS011;137;48.578;9.180;2024-02-28T05:54:19;19.00;;;14.07;;
305;SDS011;137;48.578;9.180;2024-02-28T05:56:45;17.63;;;13.70;;
305;SDS011;137;48.578;9.180;2024-02-28T05:59:12;18.93;;;14.03;;
305;SDS011;137;48.578;9.180;2024-02-28T06:01:39;17.63;;;13.90;;
305;SDS011;137;48.578;9.180;2024-02-28T06:04:06;19.60;;;13.77;;
305;SDS011;137;48.578;9.180;2024-02-28T06:06:34;18.83;;;14.37;;
305;SDS011;137;48.578;9.180;2024-02-28T06:09:01;20.67;;;15.63;;
305;SDS011;137;48.578;9.180;2024-02-28T06:11:28;18.60;;;14.23;;
305;SDS011;137;48.578;9.180;2024-02-28T06:13:55;19.23;;;14.47;;
305;SDS011;137;48.578;9.180;2024-02-28T06:16:22;20.00;;;14.93;;
305;SDS011;137;48.578;9.180;2024-02-28T06:18:49;25.20;;;15.03;;
305;SDS011;137;48.578;9.180;2024-02-28T06:21:15;19.07;;;15.50;;
305;SDS011;137;48.578;9.180;2024-02-28T06:23:43;21.03;;;13.73;;
305;SDS011;137;48.578;9.180;2024-02-28T06:26:10;16.80;;;13.10;;
305;SDS011;137;48.578;9.180;2024-02-28T06:28:41;19.30;;;13.67;;
305;SDS011;137;48.578;9.180;2024-02-28T06:31:11;15.10;;;12.63;;
305;SDS011;137;48.578;9.180;2024-02-28T06:33:40;16.47;;;12.03;;
305;SDS011;137;48.578;9.180;2024-02-28T06:36:06;15.93;;;13.17;;
305;SDS011;137;48.578;9.180;2024-02-28T06:38:33;21.00;;;13.00;;
305;SDS011;137;48.578;9.180;2024-02-28T06:41:02;20.30;;;13.00;;
305;SDS011;137;48.578;9.180;2024-02-28T06:43:30;18.00;;;13.70;;
305;SDS011;137;48.578;9.180;2024-02-28T06:45:59;20.20;;;13.80;;
305;SDS011;137;48.578;9.180;2024-02-28T06:48:25;20.17;;;14.30;;
305;SDS011;137;48.578;9.180;2024-02-28T06:50:52;18.80;;;12.50;;
305;SDS011;137;48.578;9.180;2024-02-28T06:53:19;16.37;;;12.73;;
305;SDS011;137;48.578;9.180;2024-02-28T06:55:45;18.70;;;12.53;;
305;SDS011;137;48.578;9.180;2024-02-28T06:58:15;16.20;;;12.87;;
305;SDS011;137;48.578;9.180;2024-02-28T07:00:42;17.63;;;12.77;;
305;SDS011;137;48.578;9.180;2024-02-28T07:03:09;17.17;;;13.07;;
305;SDS011;137;48.578;9.180;2024-02-28T07:05:38;19.10;;;12.40;;
305;SDS011;137;48.578;9.180;2024-02-28T07:08:07;19.50;;;13.20;;
305;SDS011;137;48.578;9.180;2024-02-28T07:10:36;17.10;;;13.13;;
305;SDS011;137;48.578;9.180;2024-02-28T07:13:04;19.83;;;13.37;;
305;SDS011;137;48.578;9.180;2024-02-28T07:15:32;18.80;;;13.23;;
305;SDS011;137;48.578;9.180;2024-02-28T07:17:59;20.20;;;13.63;;
305;SDS011;137;48.578;9.180;2024-02-28T07:20:26;16.77;;;12.03;;
305;SDS011;137;48.578;9.180;2024-02-28T07:22:53;19.80;;;13.00;;
305;SDS011;137;48.578;9.180;2024-02-28T07:25:19;21.23;;;13.27;;
305;SDS011;137;48.578;9.180;2024-02-28T07:30:18;19.47;;;13.60;;
305;SDS011;137;48.578;9.180;2024-02-28T07:32:46;17.63;;;13.00;;
305;SDS011;137;48.578;9.180;2024-02-28T07:35:14;19.20;;;13.60;;
305;SDS011;137;48.578;9.180;2024-02-28T07:37:41;18.60;;;14.20;;
305;SDS011;137;48.578;9.180;2024-02-28T07:40:08;18.30;;;13.00;;
305;SDS011;137;48.578;9.180;2024-02-28T07:42:35;20.87;;;13.07;;
305;SDS011;137;48.578;9.180;2024-02-28T07:45:02;19.87;;;13.40;;
305;SDS011;137;48.578;9.180;2024-02-28T07:47:29;19.90;;;13.30;;
305;SDS011;137;48.578;9.180;2024-02-28T07:49:57;22.02;;;19.17;;
305;SDS011;137;48.578;9.180;2024-02-28T07:52:24;20.50;;;16.50;;
305;SDS011;137;48.578;9.180;2024-02-28T07:54:51;17.17;;;13.17;;
305;SDS011;137;48.578;9.180;2024-02-28T07:57:17;19.37;;;13.73;;
305;SDS011;137;48.578;9.180;2024-02-28T07:59:44;16.10;;;12.00;;
305;SDS011;137;48.578;9.180;2024-02-28T08:02:11;16.97;;;13.00;;
305;SDS011;137;48.578;9.180;2024-02-28T08:04:38;20.83;;;14.77;;
305;SDS011;137;48.578;9.180;2024-02-28T08:07:06;19.63;;;13.40;;
305;SDS011;137;48.578;9.180;2024-02-28T08:09:32;15.60;;;11.53;;
305;SDS011;137;48.578;9.180;2024-02-28T08:11:59;20.60;;;14.47;;
305;SDS011;137;48.578;9.180;2024-02-28T08:14:26;14.93;;;11.90;;
305;SDS011;137;48.578;9.180;2024-02-28T08:16:53;16.63;;;12.13;;
305;SDS011;137;48.578;9.180;2024-02-28T08:19:20;16.70;;;12.43;;
305;SDS011;137;48.578;9.180;2024-02-28T08:21:47;17.03;;;12.30;;
305;SDS011;137;48.578;9.180;2024-02-28T08:24:16;17.93;;;12.77;;
305;SDS011;137;48.578;9.180;2024-02-28T08:26:42;19.87;;;12.93;;
305;SDS011;137;48.578;9.180;2024-02-28T08:29:09;15.70;;;13.03;;
305;SDS011;137;48.578;9.180;2024-02-28T08:31:39;19.27;;;13.50;;
305;SDS011;137;48.578;9.180;2024-02-28T08:34:07;12.37;;;10.40;;
305;SDS011;137;48.578;9.180;2024-02-28T08:36:34;15.83;;;11.23;;
305;SDS011;137;48.578;9.180;2024-02-28T08:39:01;16.17;;;12.50;;
305;SDS011;137;48.578;9.180;2024-02-28T08:41:31;16.50;;;12.13;;
305;SDS011;137;48.578;9.180;2024-02-28T08:43:58;15.50;;;12.57;;
305;SDS011;137;48.578;9.180;2024-02-28T08:46:25;16.23;;;13.80;;
305;SDS011;137;48.578;9.180;2024-02-28T08:48:52;16.13;;;12.83;;
305;SDS011;137;48.578;9.180;2024-02-28T08:51:18;16.50;;;11.17;;
305;SDS011;137;48.578;9.180;2024-02-28T08:53:45;14.47;;;11.43;;
305;SDS011;137;48.578;9.180;2024-02-28T08:56:12;15.63;;;11.43;;
305;SDS011;137;48.578;9.180;2024-02-28T08:58:39;19.47;;;12.43;;
305;SDS011;137;48.578;9.180;2024-02-28T09:01:06;24.63;;;14.17;;
305;SDS011;137;48.578;9.180;2024-02-28T09:03:32;13.90;;;12.07;;
305;SDS011;137;48.578;9.180;2024-02-28T09:05:59;16.93;;;12.17;;
305;SDS011;137;48.578;9.180;2024-02-28T09:08:26;14.83;;;11.60;;
305;SDS011;137;48.578;9.180;2024-02-28T09:10:53;16.67;;;12.60;;
305;SDS011;137;48.578;9.180;2024-02-28T09:13:20;15.90;;;10.80;;
305;SDS011;137;48.578;9.180;2024-02-28T09:15:48;16.10;;;12.13;;
305;SDS011;137;48.578;9.180;2024-02-28T09:18:15;20.23;;;13.17;;
305;SDS011;137;48.578;9.180;2024-02-28T09:20:42;18.70;;;12.53;;
305;SDS011;137;48.578;9.180;2024-02-28T09:23:09;20.80;;;12.07;;
305;SDS011;137;48.578;9.180;2024-02-28T09:25:36;16.83;;;11.90;;
305;SDS011;137;48.578;9.180;2024-02-28T09:28:03;18.10;;;13.40;;
305;SDS011;137;48.578;9.180;2024-02-28T09:30:30;15.60;;;11.83;;
305;SDS011;137;48.578;9.180;2024-02-28T09:32:58;13.33;;;10.30;;
305;SDS011;137;48.578;9.180;2024-02-28T09:35:25;14.80;;;11.40;;
305;SDS011;137;48.578;9.180;2024-02-28T09:37:51;11.70;;;9.43;;
305;SDS011;137;48.578;9.180;2024-02-28T09:40:18;13.63;;;11.97;;
305;SDS011;137;48.578;9.180;2024-02-28T09:42:46;14.90;;;11.60;;
305;SDS011;137;48.578;9.180;2024-02-28T09:45:17;14.67;;;11.00;;
305;SDS011;137;48.578;9.180;2024-02-28T09:47:46;13.77;;;11.40;;
305;SDS011;137;48.578;9.180;2024-02-28T09:50:14;11.43;;;10.20;;
305;SDS011;137;48.578;9.180;2024-02-28T09:52:50;15.70;;;11.43;;
305;SDS011;137;48.578;9.180;2024-02-28T09:55:17;14.30;;;11.47;;
305;SDS011;137;48.578;9.180;2024-02-28T09:57:44;14.17;;;10.00;;
305;SDS011;137;48.578;9.180;2024-02-28T10:00:14;15.57;;;11.53;;
305;SDS011;137;48.578;9.180;2024-02-28T10:02:44;15.80;;;10.80;;
305;SDS011;137;48.578;9.180;2024-02-28T10:05:14;15.97;;;11.40;;
305;SDS011;137;48.578;9.180;2024-02-28T10:07:43;13.40;;;10.43;;
305;SDS011;137;48.578;9.180;2024-02-28T10:10:10;12.03;;;9.23;;
305;SDS011;137;48.578;9.180;2024-02-28T10:12:40;12.97;;;9.63;;
305;SDS011;137;48.578;9.180;2024-02-28T10:15:07;14.73;;;10.90;;
305;SDS011;137;48.578;9.180;2024-02-28T10:17:35;12.83;;;11.00;;
305;SDS011;137;48.578;9.180;2024-02-28T10:20:02;14.23;;;10.70;;
305;SDS011;137;48.578;9.180;2024-02-28T10:22:34;10.77;;;9.63;;
305;SDS011;137;48.578;9.180;2024-02-28T10:25:01;10.20;;;9.07;;
305;SDS011;137;48.578;9.180;2024-02-28T10:27:28;13.30;;;10.30;;
305;SDS011;137;48.578;9.180;2024-02-28T10:29:58;13.87;;;10.40;;
305;SDS011;137;48.578;9.180;2024-02-28T10:32:25;13.50;;;10.90;;
305;SDS011;137;48.578;9.180;2024-02-28T10:34:51;11.73;;;10.53;;
305;SDS011;137;48.578;9.180;2024-02-28T10:37:20;14.80;;;11.93;;
305;SDS011;137;48.578;9.180;2024-02-28T10:39:49;12.60;;;10.93;;
305;SDS011;137;48.578;9.180;2024-02-28T10:42:20;13.50;;;10.50;;
305;SDS011;137;48.578;9.180;2024-02-28T10:44:49;11.60;;;10.23;;
305;SDS011;137;48.578;9.180;2024-02-28T10:47:17;15.17;;;10.77;;
305;SDS011;137;48.578;9.180;2024-02-28T10:49:44;14.33;;;10.87;;
305;SDS011;137;48.578;9.180;2024-02-28T10:52:11;13.97;;;10.97;;
305;SDS011;137;48.578;9.180;2024-02-28T10:54:39;14.97;;;11.40;;
305;SDS011;137;48.578;9.180;2024-02-28T10:57:10;12.07;;;9.97;;
305;SDS011;137;48.578;9.180;2024-02-28T10:59:39;13.40;;;10.60;;
305;SDS011;137;48.578;9.180;2024-02-28T11:02:08;10.73;;;9.63;;
305;SDS011;137;48.578;9.180;2024-02-28T11:04:35;14.87;;;9.83;;
305;SDS011;137;48.578;9.180;2024-02-28T11:07:02;14.37;;;11.23;;
305;SDS011;137;48.578;9.180;2024-02-28T11:09:29;13.37;;;10.93;;
305;SDS011;137;48.578;9.180;2024-02-28T11:11:57;11.87;;;10.40;;
305;SDS011;137;48.578;9.180;2024-02-28T11:14:25;13.10;;;11.23;;
305;SDS011;137;48.578;9.180;2024-02-28T11:16:59;13.27;;;10.57;;
305;SDS011;137;48.578;9.180;2024-02-28T11:19:28;15.30;;;12.85;;
305;SDS011;137;48.578;9.180;2024-02-28T11:21:56;15.13;;;12.50;;
305;SDS011;137;48.578;9.180;2024-02-28T11:24:23;13.93;;;11.07;;
305;SDS011;137;48.578;9.180;2024-02-28T11:26:52;11.70;;;9.93;;
305;SDS011;137;48.578;9.180;2024-02-28T11:29:22;13.13;;;10.30;;
305;SDS011;137;48.578;9.180;2024-02-28T11:31:51;11.50;;;10.20;;
305;SDS011;137;48.578;9.180;2024-02-28T11:34:19;13.50;;;10.70;;
305;SDS011;137;48.578;9.180;2024-02-28T11:36:46;14.33;;;11.20;;
305;SDS011;137;48.578;9.180;2024-02-28T11:39:15;13.90;;;11.13;;
305;SDS011;137;48.578;9.180;2024-02-28T11:41:42;13.87;;;10.60;;
305;SDS011;137;48.578;9.180;2024-02-28T11:44:11;15.67;;;11.87;;
305;SDS011;137;48.578;9.180;2024-02-28T11:46:42;16.67;;;13.00;;
305;SDS011;137;48.578;9.180;2024-02-28T11:49:11;13.67;;;12.27;;
305;SDS011;137;48.578;9.180;2024-02-28T11:51:39;17.00;;;15.30;;
305;SDS011;137;48.578;9.180;2024-02-28T11:54:07;14.53;;;13.03;;
305;SDS011;137;48.578;9.180;2024-02-28T11:56:34;14.93;;;12.90;;
305;SDS011;137;48.578;9.180;2024-02-28T11:59:01;15.33;;;13.17;;
305;SDS011;137;48.578;9.180;2024-02-28T12:01:39;13.53;;;10.90;;
305;SDS011;137;48.578;9.180;2024-02-28T12:04:10;15.47;;;12.00;;
305;SDS011;137;48.578;9.180;2024-02-28T12:06:40;15.17;;;12.00;;
305;SDS011;137;48.578;9.180;2024-02-28T12:09:07;16.00;;;12.60;;
305;SDS011;137;48.578;9.180;2024-02-28T12:11:35;13.93;;;11.53;;
305;SDS011;137;48.578;9.180;2024-02-28T12:14:04;17.80;;;11.87;;
305;SDS011;137;48.578;9.180;2024-02-28T12:16:34;15.97;;;13.27;;
305;SDS011;137;48.578;9.180;2024-02-28T12:19:02;16.43;;;12.20;;
305;SDS011;137;48.578;9.180;2024-02-28T12:21:33;14.80;;;12.43;;
305;SDS011;137;48.578;9.180;2024-02-28T12:24:00;17.73;;;13.00;;
305;SDS011;137;48.578;9.180;2024-02-28T12:26:27;16.60;;;12.80;;
305;SDS011;137;48.578;9.180;2024-02-28T12:28:57;16.00;;;12.87;;
305;SDS011;137;48.578;9.180;2024-02-28T12:31:24;14.03;;;11.73;;
305;SDS011;137;48.578;9.180;2024-02-28T12:33:53;16.70;;;12.10;;
305;SDS011;137;48.578;9.180;2024-02-28T12:36:20;14.10;;;12.00;;
305;SDS011;137;48.578;9.180;2024-02-28T12:38:48;14.60;;;11.00;;
305;SDS011;137;48.578;9.180;2024-02-28T12:41:15;13.73;;;11.17;;
305;SDS011;137;48.578;9.180;2024-02-28T12:43:42;14.87;;;11.87;;
305;SDS011;137;48.578;9.180;2024-02-28T12:46:09;11.30;;;10.20;;
305;SDS011;137;48.578;9.180;2024-02-28T12:48:37;13.87;;;11.70;;
305;SDS011;137;48.578;9.180;2024-02-28T12:51:10;12.23;;;10.90;;
305;SDS011;137;48.578;9.180;2024-02-28T12:53:46;14.00;;;11.47;;
305;SDS011;137;48.578;9.180;2024-02-28T12:56:15;16.87;;;13.30;;
305;SDS011;137;48.578;9.180;2024-02-28T12:58:42;19.53;;;12.70;;
305;SDS011;137;48.578;9.180;2024-02-28T13:01:09;13.90;;;12.33;;
305;SDS011;137;48.578;9.180;2024-02-28T13:03:35;14.57;;;12.33;;
305;SDS011;137;48.578;9.180;2024-02-28T13:06:02;18.07;;;14.33;;
305;SDS011;137;48.578;9.180;2024-02-28T13:08:29;20.70;;;14.60;;
305;SDS011;137;48.578;9.180;2024-02-28T13:10:57;16.00;;;13.47;;
305;SDS011;137;48.578;9.180;2024-02-28T13:13:25;14.33;;;12.27;;
305;SDS011;137;48.578;9.180;2024-02-28T13:15:52;16.47;;;12.90;;
305;SDS011;137;48.578;9.180;2024-02-28T13:18:21;17.13;;;12.93;;
305;SDS011;137;48.578;9.180;2024-02-28T13:20:48;19.80;;;14.03;;
305;SDS011;137;48.578;9.180;2024-02-28T13:23:14;22.03;;;14.23;;
305;SDS011;137;48.578;9.180;2024-02-28T13:25:41;15.67;;;13.93;;
305;SDS011;137;48.578;9.180;2024-02-28T13:28:08;15.20;;;12.40;;
305;SDS011;137;48.578;9.180;2024-02-28T13:30:36;16.77;;;13.07;;
305;SDS011;137;48.578;9.180;2024-02-28T13:33:03;14.80;;;12.60;;
305;SDS011;137;48.578;9.180;2024-02-28T13:35:30;16.87;;;13.67;;
305;SDS011;137;48.578;9.180;2024-02-28T13:37:57;16.33;;;13.57;;
305;SDS011;137;48.578;9.180;2024-02-28T13:40:25;18.37;;;14.30;;
305;SDS011;137;48.578;9.180;2024-02-28T13:42:52;18.33;;;12.73;;
305;SDS011;137;48.578;9.180;2024-02-28T13:45:18;19.73;;;14.80;;
305;SDS011;137;48.578;9.180;2024-02-28T13:47:49;17.90;;;13.53;;
305;SDS011;137;48.578;9.180;2024-02-28T13:50:16;16.37;;;13.30;;
305;SDS011;137;48.578;9.180;2024-02-28T13:52:43;17.00;;;13.77;;
305;SDS011;137;48.578;9.180;2024-02-28T13:55:10;16.47;;;12.03;;
305;SDS011;137;48.578;9.180;2024-02-28T13:57:37;15.23;;;12.30;;
305;SDS011;137;48.578;9.180;2024-02-28T14:00:04;15.07;;;11.33;;
305;SDS011;137;48.578;9.180;2024-02-28T14:02:36;14.10;;;11.00;;
305;SDS011;137;48.578;9.180;2024-02-28T14:05:04;20.40;;;12.03;;
305;SDS011;137;48.578;9.180;2024-02-28T14:07:32;15.83;;;13.10;;
305;SDS011;137;48.578;9.180;2024-02-28T14:10:01;16.53;;;13.33;;
305;SDS011;137;48.578;9.180;2024-02-28T14:12:28;18.37;;;13.67;;
305;SDS011;137;48.578;9.180;2024-02-28T14:14:55;18.57;;;13.20;;
305;SDS011;137;48.578;9.180;2024-02-28T14:17:22;17.20;;;13.33;;
305;SDS011;137;48.578;9.180;2024-02-28T14:19:49;17.10;;;12.10;;
305;SDS011;137;48.578;9.180;2024-02-28T14:22:17;14.37;;;11.70;;
305;SDS011;137;48.578;9.180;2024-02-28T14:24:44;17.30;;;11.67;;
305;SDS011;137;48.578;9.180;2024-02-28T14:27:10;17.90;;;12.90;;
305;SDS011;137;48.578;9.180;2024-02-28T14:29:37;15.63;;;13.77;;
305;SDS011;137;48.578;9.180;2024-02-28T14:32:04;15.63;;;13.67;;
305;SDS011;137;48.578;9.180;2024-02-28T14:34:32;16.80;;;12.67;;
305;SDS011;137;48.578;9.180;2024-02-28T14:37:00;16.07;;;14.03;;
305;SDS011;137;48.578;9.180;2024-02-28T14:39:31;20.20;;;14.90;;
305;SDS011;137;48.578;9.180;2024-02-28T14:41:59;16.80;;;11.63;;
305;SDS011;137;48.578;9.180;2024-02-28T14:44:26;20.03;;;13.10;;
305;SDS011;137;48.578;9.180;2024-02-28T14:46:53;16.07;;;12.70;;
305;SDS011;137;48.578;9.180;2024-02-28T14:49:22;21.77;;;14.00;;
305;SDS011;137;48.578;9.180;2024-02-28T14:51:49;19.73;;;15.60;;
305;SDS011;137;48.578;9.180;2024-02-28T14:54:16;15.13;;;13.43;;
305;SDS011;137;48.578;9.180;2024-02-28T14:56:45;17.10;;;12.90;;
305;SDS011;137;48.578;9.180;2024-02-28T14:59:12;17.37;;;13.40;;
305;SDS011;137;48.578;9.180;2024-02-28T15:01:39;19.43;;;13.87;;
305;SDS011;137;48.578;9.180;2024-02-28T15:04:06;17.37;;;13.40;;
305;SDS011;137;48.578;9.180;2024-02-28T15:06:41;18.23;;;13.60;;
305;SDS011;137;48.578;9.180;2024-02-28T15:09:08;16.37;;;13.00;;
305;SDS011;137;48.578;9.180;2024-02-28T15:11:35;19.20;;;13.70;;
305;SDS011;137;48.578;9.180;2024-02-28T15:14:03;22.17;;;14.70;;
305;SDS011;137;48.578;9.180;2024-02-28T15:16:32;19.33;;;13.10;;
305;SDS011;137;48.578;9.180;2024-02-28T15:18:58;16.60;;;12.10;;